sensor_id;sensor_type;location;lat;lon;timestamp;temperature;humidity
23411;DHT22;11878;51.774;7.220;2024-01-30T00:01:43;4.40;99.90
23411;DHT22;11878;51.774;7.220;2024-01-30T00:04:45;6.50;99.90
23411;DHT22;11878;51.774;7.220;2024-01-30T00:07:47;4.40;99.90
23411;DHT22;11878;51.774;7.220;2024-01-30T00:10:49;4.40;99.90
23411;DHT22;11878;51.774;7.220;2024-01-30T00:13:54;4.40;99.90
23411;DHT22;11878;51.774;7.220;2024-01-30T00:16:57;4.40;99.90
23411;DHT22;11878;51.774;7.220;2024-01-30T00:19:59;4.30;99.90
23411;DHT22;11878;51.774;7.220;2024-01-30T00:23:01;4.40;99.90
23411;DHT22;11878;51.774;7.220;2024-01-30T00:26:03;2.80;99.90
23411;DHT22;11878;51.774;7.220;2024-01-30T00:29:06;4.40;99.90
23411;DHT22;11878;51.774;7.220;2024-01-30T00:32:08;4.40;99.90
23411;DHT22;11878;51.774;7.220;2024-01-30T00:35:10;4.40;99.90
23411;DHT22;11878;51.774;7.220;2024-01-30T00:38:12;4.40;99.90
23411;DHT22;11878;51.774;7.220;2024-01-30T00:41:14;4.40;99.90
23411;DHT22;11878;51.774;7.220;2024-01-30T00:44:18;4.40;99.90
23411;DHT22;11878;51.774;7.220;2024-01-30T00:47:20;4.40;99.90
23411;DHT22;11878;51.774;7.220;2024-01-30T00:50:22;4.40;99.90
23411;DHT22;11878;51.774;7.220;2024-01-30T00:53:24;4.40;99.90
23411;DHT22;11878;51.774;7.220;2024-01-30T00:56:26;4.20;99.90
23411;DHT22;11878;51.774;7.220;2024-01-30T00:59:28;4.40;99.90
23411;DHT22;11878;51.774;7.220;2024-01-30T01:02:30;4.30;99.90
23411;DHT22;11878;51.774;7.220;2024-01-30T01:05:31;4.40;99.90
23411;DHT22;11878;51.774;7.220;2024-01-30T01:08:33;4.40;99.90
23411;DHT22;11878;51.774;7.220;2024-01-30T01:11:35;4.30;99.90
23411;DHT22;11878;51.774;7.220;2024-01-30T01:14:37;4.30;99.90
23411;DHT22;11878;51.774;7.220;2024-01-30T01:17:39;4.20;99.90
23411;DHT22;11878;51.774;7.220;2024-01-30T01:20:41;4.30;99.90
23411;DHT22;11878;51.774;7.220;2024-01-30T01:23:42;4.40;99.90
23411;DHT22;11878;51.774;7.220;2024-01-30T01:26:44;4.30;99.90
23411;DHT22;11878;51.774;7.220;2024-01-30T01:29:46;4.30;99.90
23411;DHT22;11878;51.774;7.220;2024-01-30T01:32:49;4.40;99.90
23411;DHT22;11878;51.774;7.220;2024-01-30T01:35:59;4.40;99.90
23411;DHT22;11878;51.774;7.220;2024-01-30T01:39:04;4.40;99.90
23411;DHT22;11878;51.774;7.220;2024-01-30T01:42:06;4.60;99.90
23411;DHT22;11878;51.774;7.220;2024-01-30T01:45:08;4.60;99.90
23411;DHT22;11878;51.774;7.220;2024-01-30T01:48:10;4.60;99.90
23411;DHT22;11878;51.774;7.220;2024-01-30T01:51:13;4.50;99.90
23411;DHT22;11878;51.774;7.220;2024-01-30T01:54:15;4.50;99.90
23411;DHT22;11878;51.774;7.220;2024-01-30T01:57:17;4.50;99.90
23411;DHT22;11878;51.774;7.220;2024-01-30T02:00:20;4.60;99.90
23411;DHT22;11878;51.774;7.220;2024-01-30T02:03:21;4.50;99.90
23411;DHT22;11878;51.774;7.220;2024-01-30T02:06:23;4.50;99.90
23411;DHT22;11878;51.774;7.220;2024-01-30T02:09:25;4.50;99.90
23411;DHT22;11878;51.774;7.220;2024-01-30T02:12:27;4.50;99.90
23411;DHT22;11878;51.774;7.220;2024-01-30T02:15:29;4.50;99.90
23411;DHT22;11878;51.774;7.220;2024-01-30T02:18:30;4.40;99.90
23411;DHT22;11878;51.774;7.220;2024-01-30T02:21:32;4.40;99.90
23411;DHT22;11878;51.774;7.220;2024-01-30T02:24:34;4.50;99.90
23411;DHT22;11878;51.774;7.220;2024-01-30T02:27:36;4.60;99.90
23411;DHT22;11878;51.774;7.220;2024-01-30T02:30:45;4.60;99.90
23411;DHT22;11878;51.774;7.220;2024-01-30T02:33:47;4.60;99.90
23411;DHT22;11878;51.774;7.220;2024-01-30T02:36:49;4.50;99.90
23411;DHT22;11878;51.774;7.220;2024-01-30T02:39:51;4.40;99.90
23411;DHT22;11878;51.774;7.220;2024-01-30T02:42:53;4.40;99.90
23411;DHT22;11878;51.774;7.220;2024-01-30T02:45:55;4.40;99.90
23411;DHT22;11878;51.774;7.220;2024-01-30T02:48:57;4.50;99.90
23411;DHT22;11878;51.774;7.220;2024-01-30T02:51:59;4.50;99.90
23411;DHT22;11878;51.774;7.220;2024-01-30T02:55:01;4.40;99.90
23411;DHT22;11878;51.774;7.220;2024-01-30T02:58:04;4.40;99.90
23411;DHT22;11878;51.774;7.220;2024-01-30T03:01:08;4.40;99.90
23411;DHT22;11878;51.774;7.220;2024-01-30T03:04:10;4.40;99.90
23411;DHT22;11878;51.774;7.220;2024-01-30T03:07:13;4.40;99.90
23411;DHT22;11878;51.774;7.220;2024-01-30T03:10:15;4.40;99.90
23411;DHT22;11878;51.774;7.220;2024-01-30T03:13:17;4.40;99.90
23411;DHT22;11878;51.774;7.220;2024-01-30T03:16:18;4.40;99.90
23411;DHT22;11878;51.774;7.220;2024-01-30T03:19:20;4.40;99.90
23411;DHT22;11878;51.774;7.220;2024-01-30T03:22:22;4.40;99.90
23411;DHT22;11878;51.774;7.220;2024-01-30T03:25:24;4.40;99.90
23411;DHT22;11878;51.774;7.220;2024-01-30T03:28:26;4.30;99.90
23411;DHT22;11878;51.774;7.220;2024-01-30T03:31:28;4.30;99.90
23411;DHT22;11878;51.774;7.220;2024-01-30T03:34:30;4.30;99.90
23411;DHT22;11878;51.774;7.220;2024-01-30T03:37:32;4.30;99.90
23411;DHT22;11878;51.774;7.220;2024-01-30T03:40:34;4.30;99.90
23411;DHT22;11878;51.774;7.220;2024-01-30T03:43:36;4.20;99.90
23411;DHT22;11878;51.774;7.220;2024-01-30T03:46:38;4.20;99.90
23411;DHT22;11878;51.774;7.220;2024-01-30T03:49:40;4.20;99.90
23411;DHT22;11878;51.774;7.220;2024-01-30T03:52:42;4.30;99.90
23411;DHT22;11878;51.774;7.220;2024-01-30T03:55:44;4.30;99.90
23411;DHT22;11878;51.774;7.220;2024-01-30T03:58:45;4.20;99.90
23411;DHT22;11878;51.774;7.220;2024-01-30T04:01:47;4.20;99.90
23411;DHT22;11878;51.774;7.220;2024-01-30T04:04:49;4.10;99.90
23411;DHT22;11878;51.774;7.220;2024-01-30T04:07:51;4.10;99.90
23411;DHT22;11878;51.774;7.220;2024-01-30T04:10:53;4.10;99.90
23411;DHT22;11878;51.774;7.220;2024-01-30T04:13:55;4.00;99.90
23411;DHT22;11878;51.774;7.220;2024-01-30T04:16:57;3.90;99.90
23411;DHT22;11878;51.774;7.220;2024-01-30T04:19:59;3.80;99.90
23411;DHT22;11878;51.774;7.220;2024-01-30T04:23:01;3.80;99.90
23411;DHT22;11878;51.774;7.220;2024-01-30T04:26:03;3.80;99.90
23411;DHT22;11878;51.774;7.220;2024-01-30T04:29:05;3.70;99.90
23411;DHT22;11878;51.774;7.220;2024-01-30T04:32:06;3.60;99.90
23411;DHT22;11878;51.774;7.220;2024-01-30T04:35:08;3.70;99.90
23411;DHT22;11878;51.774;7.220;2024-01-30T04:38:13;3.70;99.90
23411;DHT22;11878;51.774;7.220;2024-01-30T04:41:16;3.90;99.90
23411;DHT22;11878;51.774;7.220;2024-01-30T04:44:17;3.90;99.90
23411;DHT22;11878;51.774;7.220;2024-01-30T04:47:19;3.90;99.90
23411;DHT22;11878;51.774;7.220;2024-01-30T04:50:21;3.80;99.90
23411;DHT22;11878;51.774;7.220;2024-01-30T04:53:23;3.70;99.90
23411;DHT22;11878;51.774;7.220;2024-01-30T04:56:25;3.60;99.90
23411;DHT22;11878;51.774;7.220;2024-01-30T04:59:26;3.50;99.90
23411;DHT22;11878;51.774;7.220;2024-01-30T05:02:28;3.60;99.90
23411;DHT22;11878;51.774;7.220;2024-01-30T05:05:30;3.50;99.90
23411;DHT22;11878;51.774;7.220;2024-01-30T05:08:32;3.50;99.90
23411;DHT22;11878;51.774;7.220;2024-01-30T05:11:38;3.60;99.90
23411;DHT22;11878;51.774;7.220;2024-01-30T05:14:40;3.60;99.90
23411;DHT22;11878;51.774;7.220;2024-01-30T05:17:42;3.60;99.90
23411;DHT22;11878;51.774;7.220;2024-01-30T05:20:44;3.60;99.90
23411;DHT22;11878;51.774;7.220;2024-01-30T05:23:46;3.60;99.90
23411;DHT22;11878;51.774;7.220;2024-01-30T05:26:48;3.60;99.90
23411;DHT22;11878;51.774;7.220;2024-01-30T05:29:50;3.50;99.90
23411;DHT22;11878;51.774;7.220;2024-01-30T05:32:53;3.50;99.90
23411;DHT22;11878;51.774;7.220;2024-01-30T05:35:55;3.50;99.90
23411;DHT22;11878;51.774;7.220;2024-01-30T05:38:57;3.60;99.90
23411;DHT22;11878;51.774;7.220;2024-01-30T05:41:59;3.60;99.90
23411;DHT22;11878;51.774;7.220;2024-01-30T05:45:01;3.60;99.90
23411;DHT22;11878;51.774;7.220;2024-01-30T05:48:04;3.60;99.90
23411;DHT22;11878;51.774;7.220;2024-01-30T05:51:08;3.50;99.90
23411;DHT22;11878;51.774;7.220;2024-01-30T05:54:10;3.60;99.90
23411;DHT22;11878;51.774;7.220;2024-01-30T05:57:15;3.50;99.90
23411;DHT22;11878;51.774;7.220;2024-01-30T06:00:17;3.50;99.90
23411;DHT22;11878;51.774;7.220;2024-01-30T06:03:19;3.40;99.90
23411;DHT22;11878;51.774;7.220;2024-01-30T06:06:21;3.40;99.90
23411;DHT22;11878;51.774;7.220;2024-01-30T06:09:22;3.40;99.90
23411;DHT22;11878;51.774;7.220;2024-01-30T06:12:24;3.50;99.90
23411;DHT22;11878;51.774;7.220;2024-01-30T06:15:27;3.50;99.90
23411;DHT22;11878;51.774;7.220;2024-01-30T06:18:31;3.50;99.90
23411;DHT22;11878;51.774;7.220;2024-01-30T06:21:33;3.50;99.90
23411;DHT22;11878;51.774;7.220;2024-01-30T06:24:38;3.50;99.90
23411;DHT22;11878;51.774;7.220;2024-01-30T06:27:40;3.50;99.90
23411;DHT22;11878;51.774;7.220;2024-01-30T06:30:42;3.60;99.90
23411;DHT22;11878;51.774;7.220;2024-01-30T06:33:47;3.70;99.90
23411;DHT22;11878;51.774;7.220;2024-01-30T06:36:48;3.60;99.90
23411;DHT22;11878;51.774;7.220;2024-01-30T06:39:50;3.60;99.90
23411;DHT22;11878;51.774;7.220;2024-01-30T06:42:53;3.70;99.90
23411;DHT22;11878;51.774;7.220;2024-01-30T06:45:55;3.70;99.90
23411;DHT22;11878;51.774;7.220;2024-01-30T06:48:57;3.80;99.90
23411;DHT22;11878;51.774;7.220;2024-01-30T06:51:59;3.80;99.90
23411;DHT22;11878;51.774;7.220;2024-01-30T06:55:01;3.90;99.90
23411;DHT22;11878;51.774;7.220;2024-01-30T06:58:03;3.90;99.90
23411;DHT22;11878;51.774;7.220;2024-01-30T07:01:06;3.90;99.90
23411;DHT22;11878;51.774;7.220;2024-01-30T07:04:08;3.90;99.90
23411;DHT22;11878;51.774;7.220;2024-01-30T07:07:10;3.90;99.90
23411;DHT22;11878;51.774;7.220;2024-01-30T07:10:15;4.00;99.90
23411;DHT22;11878;51.774;7.220;2024-01-30T07:13:17;3.90;99.90
23411;DHT22;11878;51.774;7.220;2024-01-30T07:16:19;4.10;99.90
23411;DHT22;11878;51.774;7.220;2024-01-30T07:19:22;4.10;99.90
23411;DHT22;11878;51.774;7.220;2024-01-30T07:22:24;4.10;99.90
23411;DHT22;11878;51.774;7.220;2024-01-30T07:25:26;4.20;99.90
23411;DHT22;11878;51.774;7.220;2024-01-30T07:28:29;4.20;99.90
23411;DHT22;11878;51.774;7.220;2024-01-30T07:31:31;4.30;99.90
23411;DHT22;11878;51.774;7.220;2024-01-30T07:34:35;4.30;99.90
23411;DHT22;11878;51.774;7.220;2024-01-30T07:37:50;4.30;99.90
23411;DHT22;11878;51.774;7.220;2024-01-30T07:40:52;4.30;99.90
23411;DHT22;11878;51.774;7.220;2024-01-30T07:43:54;4.30;99.90
23411;DHT22;11878;51.774;7.220;2024-01-30T07:46:55;4.40;99.90
23411;DHT22;11878;51.774;7.220;2024-01-30T07:49:58;4.50;99.90
23411;DHT22;11878;51.774;7.220;2024-01-30T07:53:01;4.50;99.90
23411;DHT22;11878;51.774;7.220;2024-01-30T07:56:05;4.50;99.90
23411;DHT22;11878;51.774;7.220;2024-01-30T07:59:11;4.60;99.90
23411;DHT22;11878;51.774;7.220;2024-01-30T08:02:14;4.70;99.90
23411;DHT22;11878;51.774;7.220;2024-01-30T08:05:17;4.70;99.90
23411;DHT22;11878;51.774;7.220;2024-01-30T08:08:19;4.80;99.90
23411;DHT22;11878;51.774;7.220;2024-01-30T08:11:21;4.80;99.90
23411;DHT22;11878;51.774;7.220;2024-01-30T08:14:28;4.90;99.90
23411;DHT22;11878;51.774;7.220;2024-01-30T08:17:30;4.80;99.90
23411;DHT22;11878;51.774;7.220;2024-01-30T08:20:32;4.90;99.90
23411;DHT22;11878;51.774;7.220;2024-01-30T08:23:33;5.00;99.90
23411;DHT22;11878;51.774;7.220;2024-01-30T08:26:35;5.10;99.90
23411;DHT22;11878;51.774;7.220;2024-01-30T08:29:37;5.30;99.90
23411;DHT22;11878;51.774;7.220;2024-01-30T08:32:39;5.30;99.90
23411;DHT22;11878;51.774;7.220;2024-01-30T08:35:41;5.40;99.90
23411;DHT22;11878;51.774;7.220;2024-01-30T08:38:44;5.40;99.90
23411;DHT22;11878;51.774;7.220;2024-01-30T08:41:47;5.50;99.90
23411;DHT22;11878;51.774;7.220;2024-01-30T08:44:50;5.60;99.90
23411;DHT22;11878;51.774;7.220;2024-01-30T08:47:53;5.70;99.90
23411;DHT22;11878;51.774;7.220;2024-01-30T08:50:56;5.80;99.90
23411;DHT22;11878;51.774;7.220;2024-01-30T08:53:58;5.80;99.90
23411;DHT22;11878;51.774;7.220;2024-01-30T08:57:01;5.90;99.90
23411;DHT22;11878;51.774;7.220;2024-01-30T09:00:04;5.90;99.90
23411;DHT22;11878;51.774;7.220;2024-01-30T09:03:08;5.90;99.90
23411;DHT22;11878;51.774;7.220;2024-01-30T09:06:10;6.00;99.90
23411;DHT22;11878;51.774;7.220;2024-01-30T09:09:13;6.00;99.90
23411;DHT22;11878;51.774;7.220;2024-01-30T09:12:16;6.10;99.90
23411;DHT22;11878;51.774;7.220;2024-01-30T09:15:19;6.20;99.90
23411;DHT22;11878;51.774;7.220;2024-01-30T09:18:22;6.50;99.90
23411;DHT22;11878;51.774;7.220;2024-01-30T09:21:24;6.40;99.90
23411;DHT22;11878;51.774;7.220;2024-01-30T09:24:27;6.60;99.90
23411;DHT22;11878;51.774;7.220;2024-01-30T09:27:30;6.80;99.90
23411;DHT22;11878;51.774;7.220;2024-01-30T09:30:32;6.90;99.90
23411;DHT22;11878;51.774;7.220;2024-01-30T09:33:35;7.40;99.90
23411;DHT22;11878;51.774;7.220;2024-01-30T09:36:39;7.70;99.90
23411;DHT22;11878;51.774;7.220;2024-01-30T09:39:41;7.80;99.90
23411;DHT22;11878;51.774;7.220;2024-01-30T09:42:46;8.00;99.90
23411;DHT22;11878;51.774;7.220;2024-01-30T09:45:53;8.20;99.90
23411;DHT22;11878;51.774;7.220;2024-01-30T09:48:56;8.30;99.90
23411;DHT22;11878;51.774;7.220;2024-01-30T09:52:00;8.40;99.90
23411;DHT22;11878;51.774;7.220;2024-01-30T09:55:02;8.50;99.90
23411;DHT22;11878;51.774;7.220;2024-01-30T09:58:05;8.60;99.90
23411;DHT22;11878;51.774;7.220;2024-01-30T10:01:07;8.50;99.90
23411;DHT22;11878;51.774;7.220;2024-01-30T10:04:10;8.60;99.90
23411;DHT22;11878;51.774;7.220;2024-01-30T10:07:13;8.70;99.90
23411;DHT22;11878;51.774;7.220;2024-01-30T10:10:16;8.80;99.90
23411;DHT22;11878;51.774;7.220;2024-01-30T10:13:18;8.90;99.90
23411;DHT22;11878;51.774;7.220;2024-01-30T10:16:20;9.00;99.90
23411;DHT22;11878;51.774;7.220;2024-01-30T10:19:22;9.20;99.90
23411;DHT22;11878;51.774;7.220;2024-01-30T10:22:24;9.30;99.90
23411;DHT22;11878;51.774;7.220;2024-01-30T10:30:12;9.70;99.90
23411;DHT22;11878;51.774;7.220;2024-01-30T10:33:14;10.20;99.90
23411;DHT22;11878;51.774;7.220;2024-01-30T10:36:17;10.40;99.90
23411;DHT22;11878;51.774;7.220;2024-01-30T10:39:22;10.50;99.90
23411;DHT22;11878;51.774;7.220;2024-01-30T10:42:26;10.60;99.90
23411;DHT22;11878;51.774;7.220;2024-01-30T10:45:32;10.70;99.90
23411;DHT22;11878;51.774;7.220;2024-01-30T10:48:36;11.00;99.90
23411;DHT22;11878;51.774;7.220;2024-01-30T10:51:45;11.20;99.90
23411;DHT22;11878;51.774;7.220;2024-01-30T10:54:50;11.30;99.90
23411;DHT22;11878;51.774;7.220;2024-01-30T10:57:52;11.40;99.90
23411;DHT22;11878;51.774;7.220;2024-01-30T11:00:56;11.50;99.90
23411;DHT22;11878;51.774;7.220;2024-01-30T11:03:58;11.50;99.90
23411;DHT22;11878;51.774;7.220;2024-01-30T11:07:01;11.40;99.90
23411;DHT22;11878;51.774;7.220;2024-01-30T11:10:05;11.40;99.90
23411;DHT22;11878;51.774;7.220;2024-01-30T11:13:13;11.50;99.90
23411;DHT22;11878;51.774;7.220;2024-01-30T11:16:15;11.40;99.90
23411;DHT22;11878;51.774;7.220;2024-01-30T11:19:25;11.40;99.90
23411;DHT22;11878;51.774;7.220;2024-01-30T11:22:30;11.30;99.90
23411;DHT22;11878;51.774;7.220;2024-01-30T11:25:32;11.40;99.90
23411;DHT22;11878;51.774;7.220;2024-01-30T11:28:37;11.40;99.90
23411;DHT22;11878;51.774;7.220;2024-01-30T11:31:39;11.40;99.90
23411;DHT22;11878;51.774;7.220;2024-01-30T11:34:41;11.40;99.90
23411;DHT22;11878;51.774;7.220;2024-01-30T11:37:45;11.40;99.90
23411;DHT22;11878;51.774;7.220;2024-01-30T11:40:51;11.30;99.90
23411;DHT22;11878;51.774;7.220;2024-01-30T11:43:55;9.10;99.90
23411;DHT22;11878;51.774;7.220;2024-01-30T11:46:57;11.40;99.90
23411;DHT22;11878;51.774;7.220;2024-01-30T11:49:59;11.40;99.90
23411;DHT22;11878;51.774;7.220;2024-01-30T11:53:03;11.50;99.90
23411;DHT22;11878;51.774;7.220;2024-01-30T11:56:06;11.50;99.90
23411;DHT22;11878;51.774;7.220;2024-01-30T11:59:09;11.50;99.90
23411;DHT22;11878;51.774;7.220;2024-01-30T12:02:16;11.60;99.90
23411;DHT22;11878;51.774;7.220;2024-01-30T12:05:22;11.60;99.90
23411;DHT22;11878;51.774;7.220;2024-01-30T12:08:25;11.50;99.90
23411;DHT22;11878;51.774;7.220;2024-01-30T12:11:27;11.50;99.90
23411;DHT22;11878;51.774;7.220;2024-01-30T12:14:31;11.60;99.90
23411;DHT22;11878;51.774;7.220;2024-01-30T12:17:34;11.60;99.90
23411;DHT22;11878;51.774;7.220;2024-01-30T12:20:38;11.60;99.90
23411;DHT22;11878;51.774;7.220;2024-01-30T12:23:40;11.50;99.90
23411;DHT22;11878;51.774;7.220;2024-01-30T12:26:42;11.40;99.90
23411;DHT22;11878;51.774;7.220;2024-01-30T12:29:44;11.40;99.90
23411;DHT22;11878;51.774;7.220;2024-01-30T12:32:47;11.30;99.90
23411;DHT22;11878;51.774;7.220;2024-01-30T12:35:49;11.40;99.90
23411;DHT22;11878;51.774;7.220;2024-01-30T12:39:03;11.30;99.90
23411;DHT22;11878;51.774;7.220;2024-01-30T12:42:06;11.40;99.90
23411;DHT22;11878;51.774;7.220;2024-01-30T12:45:08;11.30;99.90
23411;DHT22;11878;51.774;7.220;2024-01-30T12:48:10;11.40;99.90
23411;DHT22;11878;51.774;7.220;2024-01-30T12:51:12;11.40;99.90
23411;DHT22;11878;51.774;7.220;2024-01-30T12:54:14;11.40;99.90
23411;DHT22;11878;51.774;7.220;2024-01-30T12:57:17;11.40;99.90
23411;DHT22;11878;51.774;7.220;2024-01-30T13:00:21;11.50;99.90
23411;DHT22;11878;51.774;7.220;2024-01-30T13:03:24;11.50;99.90
23411;DHT22;11878;51.774;7.220;2024-01-30T13:06:26;11.50;99.90
23411;DHT22;11878;51.774;7.220;2024-01-30T13:09:29;11.60;99.90
23411;DHT22;11878;51.774;7.220;2024-01-30T13:12:32;11.60;99.90
23411;DHT22;11878;51.774;7.220;2024-01-30T13:15:35;11.60;99.90
23411;DHT22;11878;51.774;7.220;2024-01-30T13:18:38;11.60;99.90
23411;DHT22;11878;51.774;7.220;2024-01-30T13:21:40;11.50;99.90
23411;DHT22;11878;51.774;7.220;2024-01-30T13:24:41;11.50;99.90
23411;DHT22;11878;51.774;7.220;2024-01-30T13:27:44;13.80;99.90
23411;DHT22;11878;51.774;7.220;2024-01-30T13:30:46;11.50;99.90
23411;DHT22;11878;51.774;7.220;2024-01-30T13:33:48;11.40;99.90
23411;DHT22;11878;51.774;7.220;2024-01-30T13:36:51;11.40;99.90
23411;DHT22;11878;51.774;7.220;2024-01-30T13:39:56;11.40;99.90
23411;DHT22;11878;51.774;7.220;2024-01-30T13:42:58;9.80;99.90
23411;DHT22;11878;51.774;7.220;2024-01-30T13:46:00;11.40;99.90
23411;DHT22;11878;51.774;7.220;2024-01-30T13:49:03;11.50;99.90
23411;DHT22;11878;51.774;7.220;2024-01-30T13:52:05;12.10;99.90
23411;DHT22;11878;51.774;7.220;2024-01-30T13:55:08;11.40;99.90
23411;DHT22;11878;51.774;7.220;2024-01-30T13:58:10;11.40;99.90
23411;DHT22;11878;51.774;7.220;2024-01-30T14:01:13;11.40;99.90
23411;DHT22;11878;51.774;7.220;2024-01-30T14:04:16;11.30;99.90
23411;DHT22;11878;51.774;7.220;2024-01-30T14:07:19;11.40;99.90
23411;DHT22;11878;51.774;7.220;2024-01-30T14:10:21;11.30;99.90
23411;DHT22;11878;51.774;7.220;2024-01-30T14:13:23;11.30;99.90
23411;DHT22;11878;51.774;7.220;2024-01-30T14:16:27;11.30;99.90
23411;DHT22;11878;51.774;7.220;2024-01-30T14:19:30;11.20;99.90
23411;DHT22;11878;51.774;7.220;2024-01-30T14:22:34;11.30;99.90
23411;DHT22;11878;51.774;7.220;2024-01-30T14:25:37;11.30;99.90
23411;DHT22;11878;51.774;7.220;2024-01-30T14:28:40;11.30;99.90
23411;DHT22;11878;51.774;7.220;2024-01-30T14:31:42;11.40;99.90
23411;DHT22;11878;51.774;7.220;2024-01-30T14:34:44;11.40;99.90
23411;DHT22;11878;51.774;7.220;2024-01-30T14:37:46;11.30;99.90
23411;DHT22;11878;51.774;7.220;2024-01-30T14:40:48;11.30;99.90
23411;DHT22;11878;51.774;7.220;2024-01-30T14:43:50;11.30;99.90
23411;DHT22;11878;51.774;7.220;2024-01-30T14:46:52;11.20;99.90
23411;DHT22;11878;51.774;7.220;2024-01-30T14:49:54;11.30;99.90
23411;DHT22;11878;51.774;7.220;2024-01-30T14:52:55;11.30;99.90
23411;DHT22;11878;51.774;7.220;2024-01-30T14:55:57;11.40;99.90
23411;DHT22;11878;51.774;7.220;2024-01-30T14:59:00;11.40;99.90
23411;DHT22;11878;51.774;7.220;2024-01-30T15:02:01;11.40;99.90
23411;DHT22;11878;51.774;7.220;2024-01-30T15:05:04;11.30;99.90
23411;DHT22;11878;51.774;7.220;2024-01-30T15:08:06;11.30;99.90
23411;DHT22;11878;51.774;7.220;2024-01-30T15:11:08;11.30;99.90
23411;DHT22;11878;51.774;7.220;2024-01-30T15:14:10;11.30;99.90
23411;DHT22;11878;51.774;7.220;2024-01-30T15:17:12;11.30;99.90
23411;DHT22;11878;51.774;7.220;2024-01-30T15:20:15;11.20;99.90
23411;DHT22;11878;51.774;7.220;2024-01-30T15:23:20;11.10;99.90
23411;DHT22;11878;51.774;7.220;2024-01-30T15:26:22;11.20;99.90
23411;DHT22;11878;51.774;7.220;2024-01-30T15:29:24;11.10;99.90
23411;DHT22;11878;51.774;7.220;2024-01-30T15:32:26;11.00;99.90
23411;DHT22;11878;51.774;7.220;2024-01-30T15:35:29;11.00;99.90
23411;DHT22;11878;51.774;7.220;2024-01-30T15:38:32;11.00;99.90
23411;DHT22;11878;51.774;7.220;2024-01-30T15:41:34;10.90;99.90
23411;DHT22;11878;51.774;7.220;2024-01-30T15:44:36;10.90;99.90
23411;DHT22;11878;51.774;7.220;2024-01-30T15:47:38;10.90;99.90
23411;DHT22;11878;51.774;7.220;2024-01-30T15:50:40;10.70;99.90
23411;DHT22;11878;51.774;7.220;2024-01-30T15:53:42;10.70;99.90
23411;DHT22;11878;51.774;7.220;2024-01-30T15:56:44;10.50;99.90
23411;DHT22;11878;51.774;7.220;2024-01-30T15:59:46;10.50;99.90
23411;DHT22;11878;51.774;7.220;2024-01-30T16:02:48;10.40;99.90
23411;DHT22;11878;51.774;7.220;2024-01-30T16:05:49;10.50;99.90
23411;DHT22;11878;51.774;7.220;2024-01-30T16:08:51;10.40;99.90
23411;DHT22;11878;51.774;7.220;2024-01-30T16:11:55;10.40;99.90
23411;DHT22;11878;51.774;7.220;2024-01-30T16:14:57;10.30;99.90
23411;DHT22;11878;51.774;7.220;2024-01-30T16:18:00;10.20;99.90
23411;DHT22;11878;51.774;7.220;2024-01-30T16:21:02;10.20;99.90
23411;DHT22;11878;51.774;7.220;2024-01-30T16:24:04;10.20;99.90
23411;DHT22;11878;51.774;7.220;2024-01-30T16:27:06;10.20;99.90
23411;DHT22;11878;51.774;7.220;2024-01-30T16:30:08;10.10;99.90
23411;DHT22;11878;51.774;7.220;2024-01-30T16:33:11;10.10;99.90
23411;DHT22;11878;51.774;7.220;2024-01-30T16:36:15;9.90;99.90
23411;DHT22;11878;51.774;7.220;2024-01-30T16:39:17;9.90;99.90
23411;DHT22;11878;51.774;7.220;2024-01-30T16:42:19;9.90;99.90
23411;DHT22;11878;51.774;7.220;2024-01-30T16:45:22;10.00;99.90
23411;DHT22;11878;51.774;7.220;2024-01-30T16:48:24;9.90;99.90
23411;DHT22;11878;51.774;7.220;2024-01-30T16:51:26;9.90;99.90
23411;DHT22;11878;51.774;7.220;2024-01-30T16:54:28;9.80;99.90
23411;DHT22;11878;51.774;7.220;2024-01-30T16:57:30;9.90;99.90
23411;DHT22;11878;51.774;7.220;2024-01-30T17:00:36;9.90;99.90
23411;DHT22;11878;51.774;7.220;2024-01-30T17:03:38;9.90;99.90
23411;DHT22;11878;51.774;7.220;2024-01-30T17:06:43;9.90;99.90
23411;DHT22;11878;51.774;7.220;2024-01-30T17:09:45;9.90;99.90
23411;DHT22;11878;51.774;7.220;2024-01-30T17:12:47;9.80;99.90
23411;DHT22;11878;51.774;7.220;2024-01-30T17:15:48;9.90;99.90
23411;DHT22;11878;51.774;7.220;2024-01-30T17:18:51;9.90;99.90
23411;DHT22;11878;51.774;7.220;2024-01-30T17:21:53;9.90;99.90
23411;DHT22;11878;51.774;7.220;2024-01-30T17:24:55;9.80;99.90
23411;DHT22;11878;51.774;7.220;2024-01-30T17:27:58;9.80;99.90
23411;DHT22;11878;51.774;7.220;2024-01-30T17:31:01;9.70;99.90
23411;DHT22;11878;51.774;7.220;2024-01-30T17:34:04;9.60;99.90
23411;DHT22;11878;51.774;7.220;2024-01-30T17:37:06;9.30;99.90
23411;DHT22;11878;51.774;7.220;2024-01-30T17:40:21;9.30;99.90
23411;DHT22;11878;51.774;7.220;2024-01-30T17:43:22;9.20;99.90
23411;DHT22;11878;51.774;7.220;2024-01-30T17:46:24;9.00;99.90
23411;DHT22;11878;51.774;7.220;2024-01-30T17:49:26;8.90;99.90
23411;DHT22;11878;51.774;7.220;2024-01-30T17:52:31;8.90;99.90
23411;DHT22;11878;51.774;7.220;2024-01-30T17:55:33;8.80;99.90
23411;DHT22;11878;51.774;7.220;2024-01-30T17:58:35;8.80;99.90
23411;DHT22;11878;51.774;7.220;2024-01-30T18:01:37;8.80;99.90
23411;DHT22;11878;51.774;7.220;2024-01-30T18:04:39;8.80;99.90
23411;DHT22;11878;51.774;7.220;2024-01-30T18:07:41;8.70;99.90
23411;DHT22;11878;51.774;7.220;2024-01-30T18:10:45;8.80;99.90
23411;DHT22;11878;51.774;7.220;2024-01-30T18:13:47;8.70;99.90
23411;DHT22;11878;51.774;7.220;2024-01-30T18:16:49;8.80;99.90
23411;DHT22;11878;51.774;7.220;2024-01-30T18:19:51;8.70;99.90
23411;DHT22;11878;51.774;7.220;2024-01-30T18:22:54;8.70;99.90
23411;DHT22;11878;51.774;7.220;2024-01-30T18:25:56;8.70;99.90
23411;DHT22;11878;51.774;7.220;2024-01-30T18:29:01;8.70;99.90
23411;DHT22;11878;51.774;7.220;2024-01-30T18:32:04;8.60;99.90
23411;DHT22;11878;51.774;7.220;2024-01-30T18:35:06;8.70;99.90
23411;DHT22;11878;51.774;7.220;2024-01-30T18:38:08;8.60;99.90
23411;DHT22;11878;51.774;7.220;2024-01-30T18:41:10;8.60;99.90
23411;DHT22;11878;51.774;7.220;2024-01-30T18:44:12;10.40;99.90
23411;DHT22;11878;51.774;7.220;2024-01-30T18:47:13;8.50;99.90
23411;DHT22;11878;51.774;7.220;2024-01-30T18:50:15;8.50;99.90
23411;DHT22;11878;51.774;7.220;2024-01-30T18:53:17;8.50;99.90
23411;DHT22;11878;51.774;7.220;2024-01-30T18:56:19;8.50;99.90
23411;DHT22;11878;51.774;7.220;2024-01-30T18:59:21;8.40;99.90
23411;DHT22;11878;51.774;7.220;2024-01-30T19:02:23;8.50;99.90
23411;DHT22;11878;51.774;7.220;2024-01-30T19:05:25;8.50;99.90
23411;DHT22;11878;51.774;7.220;2024-01-30T19:08:27;8.40;99.90
23411;DHT22;11878;51.774;7.220;2024-01-30T19:11:29;8.60;99.90
23411;DHT22;11878;51.774;7.220;2024-01-30T19:14:31;8.50;99.90
23411;DHT22;11878;51.774;7.220;2024-01-30T19:17:36;8.50;99.90
23411;DHT22;11878;51.774;7.220;2024-01-30T19:20:38;8.40;99.90
23411;DHT22;11878;51.774;7.220;2024-01-30T19:23:40;8.50;99.90
23411;DHT22;11878;51.774;7.220;2024-01-30T19:26:42;8.40;99.90
23411;DHT22;11878;51.774;7.220;2024-01-30T19:29:44;8.40;99.90
23411;DHT22;11878;51.774;7.220;2024-01-30T19:32:47;8.30;99.90